sensor_id;sensor_type;location;lat;lon;timestamp;pressure;altitude;pressure_sealevel;temperature;humidity
76990;BME280;65924;47.250;11.332;2023-05-14T00:00:23;94761.05;;;12.87;72.50
76990;BME280;65924;47.250;11.332;2023-05-14T00:01:02;94756.59;;;12.87;72.96
76990;BME280;65924;47.250;11.332;2023-05-14T00:01:41;94757.67;;;12.86;72.76
76990;BME280;65924;47.250;11.332;2023-05-14T00:02:19;94756.05;;;12.88;72.85
76990;BME280;65924;47.250;11.332;2023-05-14T00:02:58;94760.86;;;12.89;72.67
76990;BME280;65924;47.250;11.332;2023-05-14T00:03:37;94757.67;;;12.89;72.69
76990;BME280;65924;47.250;11.332;2023-05-14T00:04:21;94761.67;;;12.88;72.25
76990;BME280;65924;47.250;11.332;2023-05-14T00:05:01;94758.90;;;12.84;71.81
76990;BME280;65924;47.250;11.332;2023-05-14T00:05:39;94760.94;;;12.81;72.78
76990;BME280;65924;47.250;11.332;2023-05-14T00:06:18;94758.17;;;12.80;73.23
76990;BME280;65924;47.250;11.332;2023-05-14T00:06:56;94757.16;;;12.79;73.09
76990;BME280;65924;47.250;11.332;2023-05-14T00:07:36;94762.20;;;12.83;73.31
76990;BME280;65924;47.250;11.332;2023-05-14T00:08:14;94760.45;;;12.83;73.22
76990;BME280;65924;47.250;11.332;2023-05-14T00:08:53;94759.19;;;12.85;73.84
76990;BME280;65924;47.250;11.332;2023-05-14T00:09:32;94762.87;;;12.85;73.87
76990;BME280;65924;47.250;11.332;2023-05-14T00:10:10;94763.35;;;12.86;73.79
76990;BME280;65924;47.250;11.332;2023-05-14T00:10:49;94758.70;;;12.86;73.40
76990;BME280;65924;47.250;11.332;2023-05-14T00:11:28;94765.29;;;12.87;72.57
76990;BME280;65924;47.250;11.332;2023-05-14T00:12:07;94759.58;;;12.88;72.42
76990;BME280;65924;47.250;11.332;2023-05-14T00:12:45;94762.30;;;12.88;72.35
76990;BME280;65924;47.250;11.332;2023-05-14T00:13:25;94760.73;;;12.88;72.67
76990;BME280;65924;47.250;11.332;2023-05-14T00:14:04;94760.00;;;12.89;72.70
76990;BME280;65924;47.250;11.332;2023-05-14T00:14:42;94761.84;;;12.90;72.57
76990;BME280;65924;47.250;11.332;2023-05-14T00:15:21;94762.02;;;12.90;72.21
76990;BME280;65924;47.250;11.332;2023-05-14T00:16:00;94763.52;;;12.88;72.75
76990;BME280;65924;47.250;11.332;2023-05-14T00:16:39;94758.81;;;12.87;72.66
76990;BME280;65924;47.250;11.332;2023-05-14T00:17:17;94761.39;;;12.87;73.07
76990;BME280;65924;47.250;11.332;2023-05-14T00:17:59;94759.54;;;12.87;73.33
76990;BME280;65924;47.250;11.332;2023-05-14T00:18:37;94757.11;;;12.87;73.40
76990;BME280;65924;47.250;11.332;2023-05-14T00:19:16;94755.91;;;12.87;73.38
76990;BME280;65924;47.250;11.332;2023-05-14T00:19:55;94757.89;;;12.88;73.80
76990;BME280;65924;47.250;11.332;2023-05-14T00:20:33;94755.63;;;12.89;73.72
76990;BME280;65924;47.250;11.332;2023-05-14T00:21:12;94754.38;;;12.89;73.76
76990;BME280;65924;47.250;11.332;2023-05-14T00:21:54;94755.02;;;12.90;73.80
76990;BME280;65924;47.250;11.332;2023-05-14T00:22:33;94754.43;;;12.91;73.95
76990;BME280;65924;47.250;11.332;2023-05-14T00:23:15;94754.20;;;12.92;73.42
76990;BME280;65924;47.250;11.332;2023-05-14T00:23:53;94754.85;;;12.92;74.27
76990;BME280;65924;47.250;11.332;2023-05-14T00:24:32;94753.45;;;12.92;73.26
76990;BME280;65924;47.250;11.332;2023-05-14T00:25:11;94753.31;;;12.92;73.38
76990;BME280;65924;47.250;11.332;2023-05-14T00:25:50;94752.83;;;12.92;73.46
76990;BME280;65924;47.250;11.332;2023-05-14T00:26:28;94752.56;;;12.93;73.70
76990;BME280;65924;47.250;11.332;2023-05-14T00:27:07;94749.10;;;12.94;73.47
76990;BME280;65924;47.250;11.332;2023-05-14T00:27:46;94748.89;;;12.94;73.21
76990;BME280;65924;47.250;11.332;2023-05-14T00:28:24;94748.66;;;12.95;73.59
76990;BME280;65924;47.250;11.332;2023-05-14T00:29:03;94751.30;;;12.96;72.89
76990;BME280;65924;47.250;11.332;2023-05-14T00:29:41;94749.98;;;12.96;72.21
76990;BME280;65924;47.250;11.332;2023-05-14T00:30:20;94748.29;;;12.93;72.11
76990;BME280;65924;47.250;11.332;2023-05-14T00:30:59;94748.66;;;12.93;72.46
76990;BME280;65924;47.250;11.332;2023-05-14T00:31:38;94743.54;;;12.93;72.62
76990;BME280;65924;47.250;11.332;2023-05-14T00:32:17;94743.16;;;12.91;72.07
76990;BME280;65924;47.250;11.332;2023-05-14T00:32:55;94745.01;;;12.92;72.45
76990;BME280;65924;47.250;11.332;2023-05-14T00:33:34;94745.15;;;12.92;72.98
76990;BME280;65924;47.250;11.332;2023-05-14T00:34:13;94743.27;;;12.92;72.39
76990;BME280;65924;47.250;11.332;2023-05-14T00:34:52;94743.15;;;12.91;72.38
76990;BME280;65924;47.250;11.332;2023-05-14T00:35:30;94744.30;;;12.92;72.96
76990;BME280;65924;47.250;11.332;2023-05-14T00:36:12;94744.42;;;12.92;72.32
76990;BME280;65924;47.250;11.332;2023-05-14T00:36:51;94744.55;;;12.93;72.13
76990;BME280;65924;47.250;11.332;2023-05-14T00:37:30;94743.54;;;12.93;71.98
76990;BME280;65924;47.250;11.332;2023-05-14T00:38:09;94742.11;;;12.93;72.48
76990;BME280;65924;47.250;11.332;2023-05-14T00:38:54;94742.63;;;12.93;72.97
76990;BME280;65924;47.250;11.332;2023-05-14T00:39:35;94742.11;;;12.93;73.48
76990;BME280;65924;47.250;11.332;2023-05-14T00:40:14;94743.63;;;12.94;74.08
76990;BME280;65924;47.250;11.332;2023-05-14T00:41:02;94746.35;;;12.94;73.88
76990;BME280;65924;47.250;11.332;2023-05-14T00:41:41;94742.38;;;12.92;73.99
76990;BME280;65924;47.250;11.332;2023-05-14T00:42:20;94744.84;;;12.94;74.03
76990;BME280;65924;47.250;11.332;2023-05-14T00:42:58;94747.02;;;12.94;73.82
76990;BME280;65924;47.250;11.332;2023-05-14T00:43:40;94747.15;;;12.95;73.81
76990;BME280;65924;47.250;11.332;2023-05-14T00:44:18;94745.96;;;12.94;73.16
76990;BME280;65924;47.250;11.332;2023-05-14T00:44:57;94744.89;;;12.95;73.00
76990;BME280;65924;47.250;11.332;2023-05-14T00:45:37;94746.55;;;12.96;72.95
76990;BME280;65924;47.250;11.332;2023-05-14T00:46:17;94747.73;;;12.96;72.77
76990;BME280;65924;47.250;11.332;2023-05-14T00:46:57;94748.57;;;12.96;72.57
76990;BME280;65924;47.250;11.332;2023-05-14T00:47:36;94746.00;;;12.96;72.28
76990;BME280;65924;47.250;11.332;2023-05-14T00:48:17;94745.69;;;12.96;72.93
76990;BME280;65924;47.250;11.332;2023-05-14T00:48:57;94746.19;;;12.96;72.93
76990;BME280;65924;47.250;11.332;2023-05-14T00:49:48;94745.66;;;12.96;73.79
76990;BME280;65924;47.250;11.332;2023-05-14T00:50:27;94750.23;;;12.97;73.07
76990;BME280;65924;47.250;11.332;2023-05-14T00:51:07;94747.88;;;12.96;73.04
76990;BME280;65924;47.250;11.332;2023-05-14T00:51:45;94748.56;;;12.96;73.54
76990;BME280;65924;47.250;11.332;2023-05-14T00:52:24;94747.56;;;12.96;73.62
76990;BME280;65924;47.250;11.332;2023-05-14T00:53:04;94747.20;;;12.96;73.24
76990;BME280;65924;47.250;11.332;2023-05-14T00:53:47;94747.02;;;12.96;73.06
76990;BME280;65924;47.250;11.332;2023-05-14T00:54:27;94747.27;;;12.95;73.00
76990;BME280;65924;47.250;11.332;2023-05-14T00:55:10;94747.47;;;12.95;73.53
76990;BME280;65924;47.250;11.332;2023-05-14T00:55:53;94747.33;;;12.95;73.01
76990;BME280;65924;47.250;11.332;2023-05-14T00:56:33;94749.45;;;12.93;72.66
76990;BME280;65924;47.250;11.332;2023-05-14T00:57:17;94745.73;;;12.93;72.96
76990;BME280;65924;47.250;11.332;2023-05-14T00:57:56;94743.75;;;12.92;73.03
76990;BME280;65924;47.250;11.332;2023-05-14T00:58:40;94747.21;;;12.92;73.29
76990;BME280;65924;47.250;11.332;2023-05-14T00:59:19;94741.88;;;12.87;73.61
76990;BME280;65924;47.250;11.332;2023-05-14T01:00:02;94747.23;;;12.89;73.75
76990;BME280;65924;47.250;11.332;2023-05-14T01:00:41;94746.02;;;12.89;74.22
76990;BME280;65924;47.250;11.332;2023-05-14T01:01:22;94742.48;;;12.89;74.90
76990;BME280;65924;47.250;11.332;2023-05-14T01:02:00;94747.91;;;12.89;75.31
76990;BME280;65924;47.250;11.332;2023-05-14T01:02:39;94746.21;;;12.89;74.39
76990;BME280;65924;47.250;11.332;2023-05-14T01:03:18;94746.24;;;12.88;74.19
76990;BME280;65924;47.250;11.332;2023-05-14T01:03:59;94746.80;;;12.88;73.92
76990;BME280;65924;47.250;11.332;2023-05-14T01:04:38;94748.50;;;12.86;73.74
76990;BME280;65924;47.250;11.332;2023-05-14T01:05:18;94744.79;;;12.85;74.66
76990;BME280;65924;47.250;11.332;2023-05-14T01:07:14;94744.98;;;12.85;75.12
76990;BME280;65924;47.250;11.332;2023-05-14T01:09:25;94746.20;;;12.85;74.54
76990;BME280;65924;47.250;11.332;2023-05-14T01:10:14;94742.13;;;12.84;74.44
76990;BME280;65924;47.250;11.332;2023-05-14T01:11:06;94741.27;;;12.84;74.55
76990;BME280;65924;47.250;11.332;2023-05-14T01:15:00;94739.59;;;12.86;75.08
76990;BME280;65924;47.250;11.332;2023-05-14T01:15:41;94739.02;;;12.87;75.15
76990;BME280;65924;47.250;11.332;2023-05-14T01:16:26;94738.30;;;12.88;75.24
76990;BME280;65924;47.250;11.332;2023-05-14T01:17:06;94738.46;;;12.88;75.05
76990;BME280;65924;47.250;11.332;2023-05-14T01:17:58;94737.48;;;12.89;75.27
76990;BME280;65924;47.250;11.332;2023-05-14T01:18:39;94737.40;;;12.91;75.10
76990;BME280;65924;47.250;11.332;2023-05-14T01:19:43;94738.81;;;12.92;75.08
76990;BME280;65924;47.250;11.332;2023-05-14T01:20:24;94737.39;;;12.93;74.87
76990;BME280;65924;47.250;11.332;2023-05-14T01:21:32;94736.48;;;12.93;75.12
76990;BME280;65924;47.250;11.332;2023-05-14T01:22:12;94734.45;;;12.96;74.86
76990;BME280;65924;47.250;11.332;2023-05-14T01:22:50;94738.16;;;12.96;74.60
76990;BME280;65924;47.250;11.332;2023-05-14T01:23:31;94736.55;;;12.97;75.15
76990;BME280;65924;47.250;11.332;2023-05-14T01:24:12;94736.27;;;12.99;74.79
76990;BME280;65924;47.250;11.332;2023-05-14T01:24:51;94737.08;;;13.00;73.95
76990;BME280;65924;47.250;11.332;2023-05-14T01:25:33;94734.01;;;13.00;74.74
76990;BME280;65924;47.250;11.332;2023-05-14T01:26:13;94735.52;;;13.00;74.69
76990;BME280;65924;47.250;11.332;2023-05-14T01:28:11;94735.73;;;13.02;74.72
76990;BME280;65924;47.250;11.332;2023-05-14T01:28:59;94735.90;;;13.02;74.76
76990;BME280;65924;47.250;11.332;2023-05-14T01:29:45;94736.20;;;13.02;74.53
76990;BME280;65924;47.250;11.332;2023-05-14T01:31:37;94740.58;;;13.03;74.81
76990;BME280;65924;47.250;11.332;2023-05-14T01:32:19;94739.89;;;13.03;74.26
76990;BME280;65924;47.250;11.332;2023-05-14T01:33:01;94737.88;;;13.05;74.36
76990;BME280;65924;47.250;11.332;2023-05-14T01:33:53;94738.88;;;13.05;75.05
76990;BME280;65924;47.250;11.332;2023-05-14T01:34:35;94737.97;;;13.06;74.67
76990;BME280;65924;47.250;11.332;2023-05-14T01:35:14;94737.64;;;13.06;74.63
76990;BME280;65924;47.250;11.332;2023-05-14T01:35:54;94737.50;;;13.05;75.02
76990;BME280;65924;47.250;11.332;2023-05-14T01:36:33;94736.97;;;13.06;74.50
76990;BME280;65924;47.250;11.332;2023-05-14T01:37:16;94738.13;;;13.06;74.79
76990;BME280;65924;47.250;11.332;2023-05-14T01:37:57;94739.33;;;13.06;74.02
76990;BME280;65924;47.250;11.332;2023-05-14T01:38:37;94737.92;;;13.07;74.61
76990;BME280;65924;47.250;11.332;2023-05-14T01:39:18;94739.09;;;13.07;74.87
76990;BME280;65924;47.250;11.332;2023-05-14T01:39:58;94738.31;;;13.08;74.78
76990;BME280;65924;47.250;11.332;2023-05-14T01:40:38;94738.46;;;13.09;74.58
76990;BME280;65924;47.250;11.332;2023-05-14T01:41:18;94736.14;;;13.08;74.54
76990;BME280;65924;47.250;11.332;2023-05-14T01:41:57;94735.58;;;13.08;74.58
76990;BME280;65924;47.250;11.332;2023-05-14T01:42:49;94736.04;;;13.11;74.69
76990;BME280;65924;47.250;11.332;2023-05-14T01:43:29;94736.38;;;13.11;73.83
76990;BME280;65924;47.250;11.332;2023-05-14T01:44:10;94738.05;;;13.12;74.74
76990;BME280;65924;47.250;11.332;2023-05-14T01:44:49;94738.44;;;13.11;74.86
76990;BME280;65924;47.250;11.332;2023-05-14T01:45:29;94738.47;;;13.13;74.47
76990;BME280;65924;47.250;11.332;2023-05-14T01:46:08;94736.16;;;13.14;74.60
76990;BME280;65924;47.250;11.332;2023-05-14T01:46:47;94738.46;;;13.16;74.86
76990;BME280;65924;47.250;11.332;2023-05-14T01:47:25;94740.44;;;13.17;74.60
76990;BME280;65924;47.250;11.332;2023-05-14T01:48:04;94737.83;;;13.17;74.69
76990;BME280;65924;47.250;11.332;2023-05-14T01:48:43;94735.48;;;13.16;74.17
76990;BME280;65924;47.250;11.332;2023-05-14T01:49:23;94735.65;;;13.19;73.78
76990;BME280;65924;47.250;11.332;2023-05-14T01:50:01;94741.36;;;13.20;73.75
76990;BME280;65924;47.250;11.332;2023-05-14T01:50:40;94739.64;;;13.20;73.85
76990;BME280;65924;47.250;11.332;2023-05-14T01:51:19;94736.11;;;13.19;73.22
76990;BME280;65924;47.250;11.332;2023-05-14T01:51:58;94737.52;;;13.19;73.50
76990;BME280;65924;47.250;11.332;2023-05-14T01:52:37;94736.02;;;13.18;74.07
76990;BME280;65924;47.250;11.332;2023-05-14T01:53:16;94736.45;;;13.20;73.55
76990;BME280;65924;47.250;11.332;2023-05-14T01:53:55;94737.38;;;13.21;73.72
76990;BME280;65924;47.250;11.332;2023-05-14T01:54:33;94737.88;;;13.21;73.93
76990;BME280;65924;47.250;11.332;2023-05-14T01:55:12;94736.61;;;13.22;73.92
76990;BME280;65924;47.250;11.332;2023-05-14T01:55:50;94733.68;;;13.22;73.93
76990;BME280;65924;47.250;11.332;2023-05-14T01:56:29;94733.33;;;13.22;73.65
76990;BME280;65924;47.250;11.332;2023-05-14T01:57:07;94732.77;;;13.23;74.06
76990;BME280;65924;47.250;11.332;2023-05-14T01:57:47;94728.98;;;13.23;74.51
76990;BME280;65924;47.250;11.332;2023-05-14T01:58:25;94731.54;;;13.23;74.47
76990;BME280;65924;47.250;11.332;2023-05-14T01:59:04;94732.02;;;13.24;74.90
76990;BME280;65924;47.250;11.332;2023-05-14T01:59:44;94729.80;;;13.24;73.86
76990;BME280;65924;47.250;11.332;2023-05-14T02:00:23;94728.77;;;13.24;74.14
76990;BME280;65924;47.250;11.332;2023-05-14T02:01:05;94730.08;;;13.25;74.49
76990;BME280;65924;47.250;11.332;2023-05-14T02:01:43;94728.39;;;13.25;73.75
76990;BME280;65924;47.250;11.332;2023-05-14T02:02:22;94727.90;;;13.24;74.08
76990;BME280;65924;47.250;11.332;2023-05-14T02:03:00;94727.90;;;13.24;74.66
76990;BME280;65924;47.250;11.332;2023-05-14T02:03:39;94727.55;;;13.24;74.42
76990;BME280;65924;47.250;11.332;2023-05-14T02:04:17;94729.41;;;13.25;74.16
76990;BME280;65924;47.250;11.332;2023-05-14T02:04:58;94728.55;;;13.22;73.45
76990;BME280;65924;47.250;11.332;2023-05-14T02:05:37;94728.65;;;13.21;72.57
76990;BME280;65924;47.250;11.332;2023-05-14T02:06:16;94726.71;;;13.19;73.73
76990;BME280;65924;47.250;11.332;2023-05-14T02:06:54;94727.73;;;13.20;74.58
76990;BME280;65924;47.250;11.332;2023-05-14T02:07:36;94722.04;;;13.21;74.50
76990;BME280;65924;47.250;11.332;2023-05-14T02:08:14;94725.23;;;13.21;74.68
76990;BME280;65924;47.250;11.332;2023-05-14T02:08:53;94721.92;;;13.20;74.07
76990;BME280;65924;47.250;11.332;2023-05-14T02:09:31;94723.01;;;13.21;74.64
76990;BME280;65924;47.250;11.332;2023-05-14T02:10:10;94722.67;;;13.21;73.93
76990;BME280;65924;47.250;11.332;2023-05-14T02:10:49;94719.42;;;13.19;73.67
76990;BME280;65924;47.250;11.332;2023-05-14T02:11:27;94721.17;;;13.18;73.85
76990;BME280;65924;47.250;11.332;2023-05-14T02:12:07;94723.05;;;13.19;74.24
76990;BME280;65924;47.250;11.332;2023-05-14T02:12:48;94721.48;;;13.19;74.19
76990;BME280;65924;47.250;11.332;2023-05-14T02:13:27;94719.79;;;13.19;74.01
76990;BME280;65924;47.250;11.332;2023-05-14T02:14:05;94718.10;;;13.18;73.70
76990;BME280;65924;47.250;11.332;2023-05-14T02:14:44;94718.64;;;13.18;73.86
76990;BME280;65924;47.250;11.332;2023-05-14T02:15:28;94718.46;;;13.18;73.77
76990;BME280;65924;47.250;11.332;2023-05-14T02:16:10;94717.38;;;13.19;74.80
76990;BME280;65924;47.250;11.332;2023-05-14T02:16:49;94716.16;;;13.19;73.70
76990;BME280;65924;47.250;11.332;2023-05-14T02:17:28;94718.56;;;13.19;73.29
76990;BME280;65924;47.250;11.332;2023-05-14T02:18:10;94715.95;;;13.19;73.71
76990;BME280;65924;47.250;11.332;2023-05-14T02:18:49;94715.62;;;13.20;74.06
76990;BME280;65924;47.250;11.332;2023-05-14T02:19:28;94715.96;;;13.19;73.82
76990;BME280;65924;47.250;11.332;2023-05-14T02:20:08;94713.73;;;13.20;73.75
76990;BME280;65924;47.250;11.332;2023-05-14T02:20:48;94713.02;;;13.18;72.39
76990;BME280;65924;47.250;11.332;2023-05-14T02:21:26;94713.60;;;13.15;73.21
76990;BME280;65924;47.250;11.332;2023-05-14T02:22:05;94716.55;;;13.14;73.55
76990;BME280;65924;47.250;11.332;2023-05-14T02:22:46;94715.25;;;13.13;73.33
76990;BME280;65924;47.250;11.332;2023-05-14T02:23:25;94713.03;;;13.13;73.84
76990;BME280;65924;47.250;11.332;2023-05-14T02:24:04;94713.13;;;13.12;73.60
76990;BME280;65924;47.250;11.332;2023-05-14T02:24:43;94713.07;;;13.13;73.80
76990;BME280;65924;47.250;11.332;2023-05-14T02:25:21;94714.88;;;13.14;74.37
76990;BME280;65924;47.250;11.332;2023-05-14T02:26:00;94716.20;;;13.14;74.22
76990;BME280;65924;47.250;11.332;2023-05-14T02:26:39;94712.20;;;13.13;74.39
76990;BME280;65924;47.250;11.332;2023-05-14T02:27:27;94715.31;;;13.15;74.20
76990;BME280;65924;47.250;11.332;2023-05-14T02:28:05;94714.77;;;13.13;73.92
76990;BME280;65924;47.250;11.332;2023-05-14T02:28:44;94713.05;;;13.13;74.58
76990;BME280;65924;47.250;11.332;2023-05-14T02:29:24;94716.45;;;13.13;74.35
76990;BME280;65924;47.250;11.332;2023-05-14T02:30:07;94712.17;;;13.13;74.53
76990;BME280;65924;47.250;11.332;2023-05-14T02:30:46;94713.71;;;13.13;74.68
76990;BME280;65924;47.250;11.332;2023-05-14T02:31:24;94711.69;;;13.13;74.58
76990;BME280;65924;47.250;11.332;2023-05-14T02:32:04;94711.64;;;13.14;75.06
76990;BME280;65924;47.250;11.332;2023-05-14T02:32:42;94711.33;;;13.13;75.05
76990;BME280;65924;47.250;11.332;2023-05-14T02:33:21;94713.16;;;13.14;74.35
76990;BME280;65924;47.250;11.332;2023-05-14T02:34:00;94712.27;;;13.14;74.61
76990;BME280;65924;47.250;11.332;2023-05-14T02:34:39;94713.79;;;13.14;74.12
76990;BME280;65924;47.250;11.332;2023-05-14T02:35:18;94708.82;;;13.15;74.48
76990;BME280;65924;47.250;11.332;2023-05-14T02:35:56;94710.16;;;13.15;74.56
76990;BME280;65924;47.250;11.332;2023-05-14T02:36:35;94707.55;;;13.14;74.50
76990;BME280;65924;47.250;11.332;2023-05-14T02:37:13;94712.00;;;13.16;74.35
76990;BME280;65924;47.250;11.332;2023-05-14T02:37:52;94711.14;;;13.16;74.55
76990;BME280;65924;47.250;11.332;2023-05-14T02:38:31;94709.73;;;13.16;74.67
76990;BME280;65924;47.250;11.332;2023-05-14T02:39:10;94709.67;;;13.17;74.30
76990;BME280;65924;47.250;11.332;2023-05-14T02:39:48;94707.45;;;13.17;74.61
76990;BME280;65924;47.250;11.332;2023-05-14T02:40:27;94706.48;;;13.16;73.53
76990;BME280;65924;47.250;11.332;2023-05-14T02:41:05;94706.70;;;13.15;74.49
76990;BME280;65924;47.250;11.332;2023-05-14T02:41:44;94706.96;;;13.14;74.36
76990;BME280;65924;47.250;11.332;2023-05-14T02:42:23;94704.35;;;13.15;74.49
76990;BME280;65924;47.250;11.332;2023-05-14T02:43:03;94705.52;;;13.15;74.26
76990;BME280;65924;47.250;11.332;2023-05-14T02:43:42;94704.52;;;13.15;74.33
76990;BME280;65924;47.250;11.332;2023-05-14T02:44:20;94701.46;;;13.15;74.52
76990;BME280;65924;47.250;11.332;2023-05-14T02:44:59;94700.41;;;13.15;74.89
76990;BME280;65924;47.250;11.332;2023-05-14T02:45:38;94701.76;;;13.16;74.08
76990;BME280;65924;47.250;11.332;2023-05-14T02:46:16;94702.43;;;13.16;74.22
76990;BME280;65924;47.250;11.332;2023-05-14T02:46:55;94699.50;;;13.16;73.88
76990;BME280;65924;47.250;11.332;2023-05-14T02:47:34;94698.84;;;13.16;73.79
76990;BME280;65924;47.250;11.332;2023-05-14T02:48:14;94693.94;;;13.15;74.28
76990;BME280;65924;47.250;11.332;2023-05-14T02:48:52;94696.23;;;13.14;74.17
76990;BME280;65924;47.250;11.332;2023-05-14T02:49:31;94694.25;;;13.13;73.81
76990;BME280;65924;47.250;11.332;2023-05-14T02:50:09;94695.45;;;13.11;73.73
76990;BME280;65924;47.250;11.332;2023-05-14T02:50:49;94692.55;;;13.11;74.42
76990;BME280;65924;47.250;11.332;2023-05-14T02:51:29;94692.14;;;13.10;74.21
76990;BME280;65924;47.250;11.332;2023-05-14T02:52:08;94695.34;;;13.10;74.43
76990;BME280;65924;47.250;11.332;2023-05-14T02:52:46;94693.95;;;13.10;74.02
76990;BME280;65924;47.250;11.332;2023-05-14T02:53:25;94694.06;;;13.09;73.98
76990;BME280;65924;47.250;11.332;2023-05-14T02:54:04;94697.40;;;13.10;73.95
76990;BME280;65924;47.250;11.332;2023-05-14T02:54:43;94694.05;;;13.09;74.23
76990;BME280;65924;47.250;11.332;2023-05-14T02:55:22;94693.20;;;13.09;74.17
76990;BME280;65924;47.250;11.332;2023-05-14T02:56:01;94694.97;;;13.08;73.76
76990;BME280;65924;47.250;11.332;2023-05-14T02:56:40;94696.58;;;13.07;73.66
76990;BME280;65924;47.250;11.332;2023-05-14T02:57:26;94694.23;;;13.07;73.73
76990;BME280;65924;47.250;11.332;2023-05-14T02:58:05;94697.34;;;13.06;74.44
76990;BME280;65924;47.250;11.332;2023-05-14T02:58:43;94696.15;;;13.06;74.30
76990;BME280;65924;47.250;11.332;2023-05-14T02:59:23;94697.59;;;13.05;73.94
76990;BME280;65924;47.250;11.332;2023-05-14T03:00:02;94697.61;;;13.05;73.90
76990;BME280;65924;47.250;11.332;2023-05-14T03:00:41;94698.52;;;13.04;73.36
76990;BME280;65924;47.250;11.332;2023-05-14T03:01:20;94695.84;;;13.04;73.52
76990;BME280;65924;47.250;11.332;2023-05-14T03:01:58;94695.55;;;13.03;73.66
76990;BME280;65924;47.250;11.332;2023-05-14T03:02:37;94695.23;;;13.03;73.21
76990;BME280;65924;47.250;11.332;2023-05-14T03:03:18;94695.98;;;13.02;73.75
76990;BME280;65924;47.250;11.332;2023-05-14T03:03:56;94689.90;;;13.01;73.20
76990;BME280;65924;47.250;11.332;2023-05-14T03:04:35;94693.02;;;13.01;73.87
76990;BME280;65924;47.250;11.332;2023-05-14T03:05:14;94690.48;;;13.00;73.94
76990;BME280;65924;47.250;11.332;2023-05-14T03:05:52;94690.80;;;13.00;74.08
76990;BME280;65924;47.250;11.332;2023-05-14T03:06:31;94693.23;;;13.00;73.10
76990;BME280;65924;47.250;11.332;2023-05-14T03:07:09;94691.41;;;12.99;74.12
76990;BME280;65924;47.250;11.332;2023-05-14T03:07:50;94692.56;;;13.00;74.28
76990;BME280;65924;47.250;11.332;2023-05-14T03:08:31;94692.77;;;12.99;74.40
76990;BME280;65924;47.250;11.332;2023-05-14T03:09:09;94694.00;;;12.99;73.96
76990;BME280;65924;47.250;11.332;2023-05-14T03:09:48;94691.77;;;12.99;73.69
76990;BME280;65924;47.250;11.332;2023-05-14T03:10:27;94692.20;;;12.97;73.56
76990;BME280;65924;47.250;11.332;2023-05-14T03:11:05;94691.52;;;12.97;73.69
76990;BME280;65924;47.250;11.332;2023-05-14T03:11:44;94692.38;;;12.97;72.74
76990;BME280;65924;47.250;11.332;2023-05-14T03:12:23;94695.33;;;12.96;73.02
76990;BME280;65924;47.250;11.332;2023-05-14T03:13:02;94693.98;;;12.96;73.24
76990;BME280;65924;47.250;11.332;2023-05-14T03:13:41;94695.95;;;12.95;73.79
76990;BME280;65924;47.250;11.332;2023-05-14T03:14:19;94694.48;;;12.94;73.89
76990;BME280;65924;47.250;11.332;2023-05-14T03:14:58;94696.56;;;12.93;74.71
76990;BME280;65924;47.250;11.332;2023-05-14T03:15:37;94696.59;;;12.93;75.01
76990;BME280;65924;47.250;11.332;2023-05-14T03:16:15;94694.27;;;12.92;74.47
76990;BME280;65924;47.250;11.332;2023-05-14T03:16:54;94692.29;;;12.92;74.41
76990;BME280;65924;47.250;11.332;2023-05-14T03:17:33;94693.03;;;12.91;74.24
76990;BME280;65924;47.250;11.332;2023-05-14T03:18:12;94691.55;;;12.90;74.41
76990;BME280;65924;47.250;11.332;2023-05-14T03:18:51;94690.04;;;12.90;74.88
76990;BME280;65924;47.250;11.332;2023-05-14T03:19:31;94690.27;;;12.89;75.12
76990;BME280;65924;47.250;11.332;2023-05-14T03:20:11;94688.95;;;12.88;74.36
76990;BME280;65924;47.250;11.332;2023-05-14T03:20:50;94691.19;;;12.88;74.52
76990;BME280;65924;47.250;11.332;2023-05-14T03:21:28;94687.87;;;12.87;74.51
76990;BME280;65924;47.250;11.332;2023-05-14T03:22:07;94686.70;;;12.86;74.30
76990;BME280;65924;47.250;11.332;2023-05-14T03:22:46;94688.63;;;12.86;73.92
76990;BME280;65924;47.250;11.332;2023-05-14T03:23:25;94691.02;;;12.86;73.54
76990;BME280;65924;47.250;11.332;2023-05-14T03:24:04;94684.48;;;12.84;73.85
76990;BME280;65924;47.250;11.332;2023-05-14T03:24:43;94686.81;;;12.85;74.20
76990;BME280;65924;47.250;11.332;2023-05-14T03:25:22;94687.65;;;12.85;74.14
76990;BME280;65924;47.250;11.332;2023-05-14T03:26:00;94688.48;;;12.85;73.91
76990;BME280;65924;47.250;11.332;2023-05-14T03:26:39;94685.73;;;12.86;73.89
76990;BME280;65924;47.250;11.332;2023-05-14T03:27:19;94681.81;;;12.86;74.25
76990;BME280;65924;47.250;11.332;2023-05-14T03:27:58;94685.91;;;12.86;73.80
76990;BME280;65924;47.250;11.332;2023-05-14T03:28:36;94683.14;;;12.86;74.10
76990;BME280;65924;47.250;11.332;2023-05-14T03:29:15;94685.16;;;12.86;74.09
76990;BME280;65924;47.250;11.332;2023-05-14T03:29:55;94686.48;;;12.87;73.50
76990;BME280;65924;47.250;11.332;2023-05-14T03:30:33;94683.59;;;12.87;73.47
76990;BME280;65924;47.250;11.332;2023-05-14T03:31:12;94686.02;;;12.86;73.51
76990;BME280;65924;47.250;11.332;2023-05-14T03:31:51;94681.98;;;12.86;73.45
76990;BME280;65924;47.250;11.332;2023-05-14T03:32:31;94685.40;;;12.86;73.60
76990;BME280;65924;47.250;11.332;2023-05-14T03:33:10;94688.14;;;12.86;73.38
76990;BME280;65924;47.250;11.332;2023-05-14T03:33:48;94687.28;;;12.86;73.43
76990;BME280;65924;47.250;11.332;2023-05-14T03:34:27;94685.62;;;12.85;73.70
76990;BME280;65924;47.250;11.332;2023-05-14T03:35:08;94683.95;;;12.85;72.81
76990;BME280;65924;47.250;11.332;2023-05-14T03:35:47;94685.05;;;12.83;73.68
76990;BME280;65924;47.250;11.332;2023-05-14T03:36:25;94686.95;;;12.83;73.51
76990;BME280;65924;47.250;11.332;2023-05-14T03:37:04;94686.25;;;12.84;73.66